sensor_id;sensor_type;location;lat;lon;timestamp;pressure;altitude;pressure_sealevel;temperature;humidity
13594;BME280;6449;47.666;9.160;2023-10-08T00:02:33;98020.75;;;13.79;100.00
13594;BME280;6449;47.666;9.160;2023-10-08T00:07:27;98028.63;;;13.55;100.00
13594;BME280;6449;47.666;9.160;2023-10-08T00:12:20;98017.56;;;13.50;100.00
13594;BME280;6449;47.666;9.160;2023-10-08T00:17:18;98013.03;;;13.39;100.00
13594;BME280;6449;47.666;9.160;2023-10-08T00:22:13;98012.94;;;13.28;100.00
13594;BME280;6449;47.666;9.160;2023-10-08T00:27:10;98023.03;;;13.47;100.00
13594;BME280;6449;47.666;9.160;2023-10-08T00:32:06;98021.03;;;13.50;100.00
13594;BME280;6449;47.666;9.160;2023-10-08T00:37:11;98014.06;;;13.62;100.00
13594;BME280;6449;47.666;9.160;2023-10-08T00:42:07;98021.03;;;13.50;100.00
13594;BME280;6449;47.666;9.160;2023-10-08T00:47:01;98018.91;;;13.55;100.00
13594;BME280;6449;47.666;9.160;2023-10-08T00:52:00;98014.94;;;13.37;100.00
13594;BME280;6449;47.666;9.160;2023-10-08T00:57:18;98008.81;;;13.24;100.00
13594;BME280;6449;47.666;9.160;2023-10-08T01:02:13;98014.25;;;13.21;100.00
13594;BME280;6449;47.666;9.160;2023-10-08T01:07:14;98005.34;;;13.23;100.00
13594;BME280;6449;47.666;9.160;2023-10-08T01:12:11;98005.66;;;13.31;100.00
13594;BME280;6449;47.666;9.160;2023-10-08T01:17:09;97999.34;;;13.34;100.00
13594;BME280;6449;47.666;9.160;2023-10-08T01:22:07;98014.06;;;13.36;100.00
13594;BME280;6449;47.666;9.160;2023-10-08T01:27:05;98008.81;;;13.24;100.00
13594;BME280;6449;47.666;9.160;2023-10-08T01:32:03;98001.75;;;13.24;100.00
13594;BME280;6449;47.666;9.160;2023-10-08T01:37:02;98004.63;;;13.21;100.00
13594;BME280;6449;47.666;9.160;2023-10-08T01:42:02;97999.53;;;13.18;100.00
13594;BME280;6449;47.666;9.160;2023-10-08T01:46:57;97993.84;;;13.11;100.00
13594;BME280;6449;47.666;9.160;2023-10-08T01:51:51;97993.81;;;12.99;100.00
13594;BME280;6449;47.666;9.160;2023-10-08T01:56:46;97984.78;;;12.90;100.00
13594;BME280;6449;47.666;9.160;2023-10-08T02:01:42;97982.34;;;12.87;100.00
13594;BME280;6449;47.666;9.160;2023-10-08T02:06:38;97979.41;;;12.92;100.00
13594;BME280;6449;47.666;9.160;2023-10-08T02:11:45;97983.28;;;12.99;100.00
13594;BME280;6449;47.666;9.160;2023-10-08T02:16:44;97974.97;;;12.92;100.00
13594;BME280;6449;47.666;9.160;2023-10-08T02:21:37;97971.91;;;12.98;100.00
13594;BME280;6449;47.666;9.160;2023-10-08T02:26:33;97979.50;;;12.90;100.00
13594;BME280;6449;47.666;9.160;2023-10-08T02:31:27;97973.59;;;12.99;100.00
13594;BME280;6449;47.666;9.160;2023-10-08T02:36:22;97981.19;;;13.04;100.00
13594;BME280;6449;47.666;9.160;2023-10-08T02:41:16;97978.03;;;12.99;100.00
13594;BME280;6449;47.666;9.160;2023-10-08T02:46:10;97975.50;;;12.84;100.00
13594;BME280;6449;47.666;9.160;2023-10-08T02:51:07;97983.47;;;12.83;100.00
13594;BME280;6449;47.666;9.160;2023-10-08T02:56:07;97973.38;;;12.77;100.00
13594;BME280;6449;47.666;9.160;2023-10-08T03:01:05;97977.47;;;12.68;100.00
13594;BME280;6449;47.666;9.160;2023-10-08T03:05:59;97970.53;;;12.80;100.00
13594;BME280;6449;47.666;9.160;2023-10-08T03:10:55;97960.75;;;12.82;100.00
13594;BME280;6449;47.666;9.160;2023-10-08T03:15:56;97958.88;;;12.84;100.00
13594;BME280;6449;47.666;9.160;2023-10-08T03:21:00;97959.72;;;12.84;100.00
13594;BME280;6449;47.666;9.160;2023-10-08T03:25:57;97964.09;;;12.58;100.00
13594;BME280;6449;47.666;9.160;2023-10-08T03:30:54;97961.03;;;12.52;100.00
13594;BME280;6449;47.666;9.160;2023-10-08T03:35:55;97951.97;;;12.43;100.00
13594;BME280;6449;47.666;9.160;2023-10-08T03:40:49;97959.25;;;12.52;100.00
13594;BME280;6449;47.666;9.160;2023-10-08T03:45:46;97958.41;;;12.52;100.00
13594;BME280;6449;47.666;9.160;2023-10-08T03:50:47;97958.06;;;12.44;100.00
13594;BME280;6449;47.666;9.160;2023-10-08T03:55:48;97955.25;;;12.47;100.00
13594;BME280;6449;47.666;9.160;2023-10-08T04:00:44;97952.69;;;12.45;100.00
13594;BME280;6449;47.666;9.160;2023-10-08T04:05:38;97958.38;;;12.39;100.00
13594;BME280;6449;47.666;9.160;2023-10-08T04:10:53;97969.19;;;12.35;100.00
13594;BME280;6449;47.666;9.160;2023-10-08T04:16:05;97969.28;;;12.33;100.00
13594;BME280;6449;47.666;9.160;2023-10-08T04:20:58;97953.50;;;12.33;100.00
13594;BME280;6449;47.666;9.160;2023-10-08T04:25:58;97939.63;;;12.31;100.00
13594;BME280;6449;47.666;9.160;2023-10-08T04:30:52;97941.22;;;12.33;100.00
13594;BME280;6449;47.666;9.160;2023-10-08T04:35:46;97941.75;;;12.39;100.00
13594;BME280;6449;47.666;9.160;2023-10-08T04:40:43;97943.66;;;12.49;100.00
13594;BME280;6449;47.666;9.160;2023-10-08T04:45:42;97941.75;;;12.51;100.00
13594;BME280;6449;47.666;9.160;2023-10-08T04:50:35;97934.81;;;12.50;100.00
13594;BME280;6449;47.666;9.160;2023-10-08T04:55:30;97941.13;;;12.48;100.00
13594;BME280;6449;47.666;9.160;2023-10-08T05:00:23;97936.91;;;12.32;100.00
13594;BME280;6449;47.666;9.160;2023-10-08T05:05:34;97939.81;;;12.28;100.00
13594;BME280;6449;47.666;9.160;2023-10-08T05:10:47;97946.03;;;12.27;100.00
13594;BME280;6449;47.666;9.160;2023-10-08T05:16:09;97955.28;;;12.20;100.00
13594;BME280;6449;47.666;9.160;2023-10-08T05:21:23;97947.16;;;12.23;100.00
13594;BME280;6449;47.666;9.160;2023-10-08T05:26:32;97950.91;;;12.06;100.00
13594;BME280;6449;47.666;9.160;2023-10-08T05:31:34;97948.38;;;12.04;100.00
13594;BME280;6449;47.666;9.160;2023-10-08T05:36:44;97949.56;;;12.13;100.00
13594;BME280;6449;47.666;9.160;2023-10-08T05:42:03;97951.94;;;12.03;100.00
13594;BME280;6449;47.666;9.160;2023-10-08T05:47:08;97955.06;;;11.96;100.00
13594;BME280;6449;47.666;9.160;2023-10-08T05:52:22;97955.72;;;11.99;100.00
13594;BME280;6449;47.666;9.160;2023-10-08T05:57:35;97953.78;;;12.16;100.00
13594;BME280;6449;47.666;9.160;2023-10-08T06:02:42;97953.16;;;12.25;100.00
13594;BME280;6449;47.666;9.160;2023-10-08T06:07:54;97964.31;;;12.28;100.00
13594;BME280;6449;47.666;9.160;2023-10-08T06:13:05;97975.13;;;12.24;100.00
13594;BME280;6449;47.666;9.160;2023-10-08T06:18:02;97976.94;;;12.23;100.00
13594;BME280;6449;47.666;9.160;2023-10-08T06:23:06;97972.31;;;12.27;100.00
13594;BME280;6449;47.666;9.160;2023-10-08T06:28:03;97974.75;;;12.30;100.00
13594;BME280;6449;47.666;9.160;2023-10-08T06:33:03;97964.47;;;12.40;100.00
13594;BME280;6449;47.666;9.160;2023-10-08T06:37:57;97978.56;;;12.39;100.00
13594;BME280;6449;47.666;9.160;2023-10-08T06:42:54;97985.50;;;12.40;100.00
13594;BME280;6449;47.666;9.160;2023-10-08T06:47:51;97984.66;;;12.39;100.00
13594;BME280;6449;47.666;9.160;2023-10-08T06:52:45;97991.66;;;12.53;100.00
13594;BME280;6449;47.666;9.160;2023-10-08T06:57:41;97993.03;;;12.71;100.00
13594;BME280;6449;47.666;9.160;2023-10-08T07:02:36;97992.97;;;12.85;100.00
13594;BME280;6449;47.666;9.160;2023-10-08T07:07:32;97996.38;;;13.00;100.00
13594;BME280;6449;47.666;9.160;2023-10-08T07:12:31;98001.50;;;13.15;100.00
13594;BME280;6449;47.666;9.160;2023-10-08T07:17:27;97991.75;;;13.29;100.00
13594;BME280;6449;47.666;9.160;2023-10-08T07:22:34;98005.66;;;13.44;100.00
13594;BME280;6449;47.666;9.160;2023-10-08T07:27:31;97998.56;;;13.57;100.00
13594;BME280;6449;47.666;9.160;2023-10-08T07:32:29;98006.22;;;13.73;100.00
13594;BME280;6449;47.666;9.160;2023-10-08T07:37:23;98004.50;;;13.98;100.00
13594;BME280;6449;47.666;9.160;2023-10-08T07:42:19;97998.06;;;14.02;100.00
13594;BME280;6449;47.666;9.160;2023-10-08T07:47:13;98005.06;;;14.14;100.00
13594;BME280;6449;47.666;9.160;2023-10-08T07:52:07;98003.72;;;14.32;100.00
13594;BME280;6449;47.666;9.160;2023-10-08T07:57:01;98005.56;;;14.56;100.00
13594;BME280;6449;47.666;9.160;2023-10-08T08:02:04;98023.72;;;14.72;100.00
13594;BME280;6449;47.666;9.160;2023-10-08T08:07:02;98028.78;;;14.86;100.00
13594;BME280;6449;47.666;9.160;2023-10-08T08:11:56;98027.44;;;15.04;100.00
13594;BME280;6449;47.666;9.160;2023-10-08T08:16:50;98026.41;;;15.29;100.00
13594;BME280;6449;47.666;9.160;2023-10-08T08:21:45;98036.63;;;15.45;100.00
13594;BME280;6449;47.666;9.160;2023-10-08T08:26:39;98039.03;;;15.59;100.00
13594;BME280;6449;47.666;9.160;2023-10-08T08:31:53;98047.25;;;15.79;100.00
13594;BME280;6449;47.666;9.160;2023-10-08T08:36:50;98054.91;;;15.82;100.00
13594;BME280;6449;47.666;9.160;2023-10-08T08:41:43;98047.50;;;15.98;100.00
13594;BME280;6449;47.666;9.160;2023-10-08T08:46:38;98042.66;;;16.14;100.00
13594;BME280;6449;47.666;9.160;2023-10-08T08:51:32;98050.19;;;16.30;100.00
13594;BME280;6449;47.666;9.160;2023-10-08T08:56:29;98047.03;;;16.47;100.00
13594;BME280;6449;47.666;9.160;2023-10-08T09:01:23;98046.72;;;16.62;100.00
13594;BME280;6449;47.666;9.160;2023-10-08T09:06:17;98052.81;;;16.85;100.00
13594;BME280;6449;47.666;9.160;2023-10-08T09:11:15;98047.09;;;17.00;100.00
13594;BME280;6449;47.666;9.160;2023-10-08T09:16:14;98057.88;;;17.09;100.00
13594;BME280;6449;47.666;9.160;2023-10-08T09:21:14;98057.50;;;17.34;100.00
13594;BME280;6449;47.666;9.160;2023-10-08T09:26:07;98064.19;;;17.59;100.00
13594;BME280;6449;47.666;9.160;2023-10-08T09:31:01;98067.75;;;17.69;100.00
13594;BME280;6449;47.666;9.160;2023-10-08T09:35:59;98073.69;;;17.83;100.00
13594;BME280;6449;47.666;9.160;2023-10-08T09:40:55;98067.31;;;17.95;100.00
13594;BME280;6449;47.666;9.160;2023-10-08T09:46:12;98060.41;;;18.13;100.00
13594;BME280;6449;47.666;9.160;2023-10-08T09:51:11;98061.28;;;18.23;100.00
13594;BME280;6449;47.666;9.160;2023-10-08T09:56:13;98059.63;;;18.42;100.00
13594;BME280;6449;47.666;9.160;2023-10-08T10:01:08;98048.19;;;18.51;100.00
13594;BME280;6449;47.666;9.160;2023-10-08T10:06:03;98043.31;;;18.56;100.00
13594;BME280;6449;47.666;9.160;2023-10-08T10:11:03;98048.91;;;18.63;100.00
13594;BME280;6449;47.666;9.160;2023-10-08T10:15:58;98046.72;;;18.77;100.00
13594;BME280;6449;47.666;9.160;2023-10-08T10:20:57;98049.38;;;18.77;100.00
13594;BME280;6449;47.666;9.160;2023-10-08T10:25:53;98050.91;;;18.90;100.00
13594;BME280;6449;47.666;9.160;2023-10-08T10:30:48;98056.34;;;18.78;100.00
13594;BME280;6449;47.666;9.160;2023-10-08T10:35:41;98053.81;;;18.67;100.00
13594;BME280;6449;47.666;9.160;2023-10-08T10:40:43;98046.44;;;18.71;100.00
13594;BME280;6449;47.666;9.160;2023-10-08T10:45:38;98035.66;;;18.72;100.00
13594;BME280;6449;47.666;9.160;2023-10-08T10:50:37;98039.56;;;18.68;100.00
13594;BME280;6449;47.666;9.160;2023-10-08T10:55:40;98039.56;;;18.68;100.00
13594;BME280;6449;47.666;9.160;2023-10-08T11:00:42;98030.88;;;18.56;100.00
13594;BME280;6449;47.666;9.160;2023-10-08T11:05:57;98032.53;;;18.57;100.00
13594;BME280;6449;47.666;9.160;2023-10-08T11:10:58;98032.56;;;18.67;100.00
13594;BME280;6449;47.666;9.160;2023-10-08T11:15:57;98034.34;;;18.57;100.00
13594;BME280;6449;47.666;9.160;2023-10-08T11:21:05;98035.81;;;18.80;100.00
13594;BME280;6449;47.666;9.160;2023-10-08T11:26:06;98034.38;;;18.96;100.00
13594;BME280;6449;47.666;9.160;2023-10-08T11:31:00;98044.19;;;19.05;100.00
13594;BME280;6449;47.666;9.160;2023-10-08T11:36:03;98048.94;;;19.11;100.00
13594;BME280;6449;47.666;9.160;2023-10-08T11:41:11;98036.78;;;19.08;100.00
13594;BME280;6449;47.666;9.160;2023-10-08T11:46:12;98039.28;;;19.10;100.00
13594;BME280;6449;47.666;9.160;2023-10-08T11:51:11;98026.28;;;19.07;100.00
13594;BME280;6449;47.666;9.160;2023-10-08T11:56:05;98022.66;;;19.08;100.00
13594;BME280;6449;47.666;9.160;2023-10-08T12:01:05;98020.25;;;19.05;100.00
13594;BME280;6449;47.666;9.160;2023-10-08T12:05:58;98019.69;;;19.01;100.00
13594;BME280;6449;47.666;9.160;2023-10-08T12:10:53;98011.28;;;19.06;100.00
13594;BME280;6449;47.666;9.160;2023-10-08T12:15:47;98002.06;;;19.20;100.00
13594;BME280;6449;47.666;9.160;2023-10-08T12:20:41;97989.97;;;19.35;100.00
13594;BME280;6449;47.666;9.160;2023-10-08T12:25:37;97994.94;;;19.57;100.00
13594;BME280;6449;47.666;9.160;2023-10-08T12:30:33;97991.94;;;19.80;100.00
13594;BME280;6449;47.666;9.160;2023-10-08T12:35:33;97981.63;;;19.95;100.00
13594;BME280;6449;47.666;9.160;2023-10-08T12:40:29;97980.75;;;20.04;100.00
13594;BME280;6449;47.666;9.160;2023-10-08T12:45:35;97973.75;;;20.03;100.00
13594;BME280;6449;47.666;9.160;2023-10-08T12:50:29;97965.47;;;20.06;100.00
13594;BME280;6449;47.666;9.160;2023-10-08T12:55:34;97965.56;;;20.14;100.00
13594;BME280;6449;47.666;9.160;2023-10-08T13:00:32;97962.97;;;20.22;100.00
13594;BME280;6449;47.666;9.160;2023-10-08T13:05:27;97954.63;;;20.35;100.00
13594;BME280;6449;47.666;9.160;2023-10-08T13:10:21;97957.19;;;20.45;100.00
13594;BME280;6449;47.666;9.160;2023-10-08T13:15:15;97962.31;;;20.56;100.00
13594;BME280;6449;47.666;9.160;2023-10-08T13:20:09;97961.72;;;20.62;100.00
13594;BME280;6449;47.666;9.160;2023-10-08T13:25:07;97953.66;;;20.54;100.00
13594;BME280;6449;47.666;9.160;2023-10-08T13:30:00;97937.81;;;20.52;100.00
13594;BME280;6449;47.666;9.160;2023-10-08T13:34:57;97944.81;;;20.53;100.00
13594;BME280;6449;47.666;9.160;2023-10-08T13:39:52;97935.53;;;20.57;100.00
13594;BME280;6449;47.666;9.160;2023-10-08T13:44:47;97937.13;;;20.50;100.00
13594;BME280;6449;47.666;9.160;2023-10-08T13:49:40;97941.53;;;20.41;100.00
13594;BME280;6449;47.666;9.160;2023-10-08T13:54:35;97930.63;;;20.17;100.00
13594;BME280;6449;47.666;9.160;2023-10-08T13:59:34;97932.22;;;20.10;100.00
13594;BME280;6449;47.666;9.160;2023-10-08T14:04:31;97920.19;;;20.06;100.00
13594;BME280;6449;47.666;9.160;2023-10-08T14:09:32;97916.25;;;20.10;100.00
13594;BME280;6449;47.666;9.160;2023-10-08T14:14:30;97919.59;;;19.94;100.00
13594;BME280;6449;47.666;9.160;2023-10-08T14:19:26;97920.41;;;19.77;100.00
13594;BME280;6449;47.666;9.160;2023-10-08T14:24:29;97915.78;;;19.69;100.00
13594;BME280;6449;47.666;9.160;2023-10-08T14:29:27;97917.38;;;19.62;100.00
13594;BME280;6449;47.666;9.160;2023-10-08T14:34:21;97915.56;;;19.53;100.00
13594;BME280;6449;47.666;9.160;2023-10-08T14:39:35;97908.78;;;19.41;100.00
13594;BME280;6449;47.666;9.160;2023-10-08T14:44:46;97898.41;;;19.37;100.00
13594;BME280;6449;47.666;9.160;2023-10-08T14:49:41;97897.94;;;19.24;100.00
13594;BME280;6449;47.666;9.160;2023-10-08T14:54:37;97895.69;;;19.20;100.00
13594;BME280;6449;47.666;9.160;2023-10-08T14:59:32;97895.56;;;19.21;100.00
13594;BME280;6449;47.666;9.160;2023-10-08T15:04:26;97889.41;;;19.21;100.00
13594;BME280;6449;47.666;9.160;2023-10-08T15:09:20;97884.09;;;19.21;100.00
13594;BME280;6449;47.666;9.160;2023-10-08T15:14:17;97876.25;;;19.19;100.00
13594;BME280;6449;47.666;9.160;2023-10-08T15:19:11;97881.09;;;19.33;100.00
13594;BME280;6449;47.666;9.160;2023-10-08T15:24:08;97875.72;;;19.43;100.00
13594;BME280;6449;47.666;9.160;2023-10-08T15:29:04;97875.81;;;19.51;100.00
13594;BME280;6449;47.666;9.160;2023-10-08T15:33:58;97875.09;;;19.59;100.00
13594;BME280;6449;47.666;9.160;2023-10-08T15:38:56;97874.81;;;19.62;100.00
13594;BME280;6449;47.666;9.160;2023-10-08T15:43:51;97879.31;;;19.61;100.00
13594;BME280;6449;47.666;9.160;2023-10-08T15:48:46;97878.72;;;19.58;100.00
13594;BME280;6449;47.666;9.160;2023-10-08T15:53:41;97873.44;;;19.48;100.00
13594;BME280;6449;47.666;9.160;2023-10-08T15:58:34;97875.47;;;19.36;100.00
13594;BME280;6449;47.666;9.160;2023-10-08T16:03:27;97875.66;;;19.25;100.00
13594;BME280;6449;47.666;9.160;2023-10-08T16:08:21;97875.47;;;19.09;100.00
13594;BME280;6449;47.666;9.160;2023-10-08T16:13:16;97875.91;;;18.95;100.00
13594;BME280;6449;47.666;9.160;2023-10-08T16:18:11;97880.41;;;18.84;100.00
13594;BME280;6449;47.666;9.160;2023-10-08T16:23:05;97875.28;;;18.73;100.00
13594;BME280;6449;47.666;9.160;2023-10-08T16:27:59;97882.97;;;18.67;100.00
13594;BME280;6449;47.666;9.160;2023-10-08T16:32:55;97887.72;;;18.63;100.00
13594;BME280;6449;47.666;9.160;2023-10-08T16:37:49;97877.66;;;18.57;100.00
13594;BME280;6449;47.666;9.160;2023-10-08T16:42:43;97884.09;;;18.54;100.00
13594;BME280;6449;47.666;9.160;2023-10-08T16:47:36;97881.03;;;18.49;100.00
13594;BME280;6449;47.666;9.160;2023-10-08T16:52:31;97885.94;;;18.35;100.00
13594;BME280;6449;47.666;9.160;2023-10-08T16:57:25;97889.31;;;18.27;100.00
13594;BME280;6449;47.666;9.160;2023-10-08T17:02:18;97890.25;;;18.16;100.00
13594;BME280;6449;47.666;9.160;2023-10-08T17:07:11;97892.50;;;18.01;100.00
13594;BME280;6449;47.666;9.160;2023-10-08T17:12:06;97881.03;;;17.91;100.00
13594;BME280;6449;47.666;9.160;2023-10-08T17:17:02;97880.88;;;17.83;100.00
13594;BME280;6449;47.666;9.160;2023-10-08T17:21:56;97876.59;;;17.61;100.00
13594;BME280;6449;47.666;9.160;2023-10-08T17:26:49;97875.63;;;17.52;100.00
13594;BME280;6449;47.666;9.160;2023-10-08T17:32:05;97873.66;;;17.54;100.00
13594;BME280;6449;47.666;9.160;2023-10-08T17:36:58;97879.09;;;17.43;100.00
13594;BME280;6449;47.666;9.160;2023-10-08T17:41:55;97875.84;;;17.40;100.00
13594;BME280;6449;47.666;9.160;2023-10-08T17:46:49;97870.84;;;17.37;100.00
13594;BME280;6449;47.666;9.160;2023-10-08T17:51:46;97865.66;;;17.35;100.00
13594;BME280;6449;47.666;9.160;2023-10-08T17:56:40;97869.13;;;17.36;100.00
13594;BME280;6449;47.666;9.160;2023-10-08T18:01:34;97872.63;;;17.26;100.00
13594;BME280;6449;47.666;9.160;2023-10-08T18:06:32;97863.25;;;17.22;100.00
13594;BME280;6449;47.666;9.160;2023-10-08T18:11:29;97867.41;;;17.15;100.00
13594;BME280;6449;47.666;9.160;2023-10-08T18:16:24;97865.06;;;16.91;100.00
13594;BME280;6449;47.666;9.160;2023-10-08T18:21:18;97852.75;;;16.81;100.00
13594;BME280;6449;47.666;9.160;2023-10-08T18:26:12;97841.75;;;16.85;100.00
13594;BME280;6449;47.666;9.160;2023-10-08T18:31:07;97840.47;;;16.80;100.00
13594;BME280;6449;47.666;9.160;2023-10-08T18:36:06;97840.41;;;16.70;100.00
13594;BME280;6449;47.666;9.160;2023-10-08T18:41:02;97846.31;;;16.73;100.00
13594;BME280;6449;47.666;9.160;2023-10-08T18:45:56;97851.06;;;16.80;100.00
13594;BME280;6449;47.666;9.160;2023-10-08T18:50:50;97849.13;;;16.82;100.00
13594;BME280;6449;47.666;9.160;2023-10-08T18:55:44;97857.91;;;16.82;100.00
13594;BME280;6449;47.666;9.160;2023-10-08T19:00:44;97854.56;;;16.80;100.00
13594;BME280;6449;47.666;9.160;2023-10-08T19:05:39;97854.69;;;16.79;100.00
13594;BME280;6449;47.666;9.160;2023-10-08T19:10:34;97857.41;;;16.67;100.00
13594;BME280;6449;47.666;9.160;2023-10-08T19:15:30;97857.00;;;16.51;100.00
13594;BME280;6449;47.666;9.160;2023-10-08T19:20:24;97857.00;;;16.51;100.00
13594;BME280;6449;47.666;9.160;2023-10-08T19:25:17;97851.44;;;16.54;100.00
13594;BME280;6449;47.666;9.160;2023-10-08T19:30:14;97856.28;;;16.49;100.00
13594;BME280;6449;47.666;9.160;2023-10-08T19:35:09;97854.69;;;16.37;100.00
13594;BME280;6449;47.666;9.160;2023-10-08T19:40:03;97853.84;;;16.36;100.00
13594;BME280;6449;47.666;9.160;2023-10-08T19:45:02;97855.44;;;16.28;100.00
13594;BME280;6449;47.666;9.160;2023-10-08T19:49:59;97859.22;;;16.14;100.00
13594;BME280;6449;47.666;9.160;2023-10-08T19:54:52;97859.66;;;16.09;100.00
13594;BME280;6449;47.666;9.160;2023-10-08T19:59:45;97865.63;;;16.11;100.00
13594;BME280;6449;47.666;9.160;2023-10-08T20:04:39;97857.25;;;16.06;100.00
13594;BME280;6449;47.666;9.160;2023-10-08T20:09:34;97856.53;;;16.04;100.00
13594;BME280;6449;47.666;9.160;2023-10-08T20:14:27;97856.91;;;16.00;100.00
13594;BME280;6449;47.666;9.160;2023-10-08T20:19:21;97856.59;;;15.93;100.00
13594;BME280;6449;47.666;9.160;2023-10-08T20:24:14;97854.31;;;15.88;100.00
13594;BME280;6449;47.666;9.160;2023-10-08T20:29:13;97850.59;;;15.80;100.00
13594;BME280;6449;47.666;9.160;2023-10-08T20:34:06;97854.56;;;15.85;100.00
13594;BME280;6449;47.666;9.160;2023-10-08T20:39:04;97854.56;;;15.85;100.00
13594;BME280;6449;47.666;9.160;2023-10-08T20:44:05;97859.00;;;15.85;100.00
13594;BME280;6449;47.666;9.160;2023-10-08T20:49:00;97860.94;;;15.83;100.00
13594;BME280;6449;47.666;9.160;2023-10-08T20:53:55;97864.56;;;15.59;100.00
13594;BME280;6449;47.666;9.160;2023-10-08T20:58:49;97861.81;;;15.50;100.00
13594;BME280;6449;47.666;9.160;2023-10-08T21:03:42;97869.19;;;15.46;100.00
13594;BME280;6449;47.666;9.160;2023-10-08T21:08:37;97866.06;;;15.41;100.00
13594;BME280;6449;47.666;9.160;2023-10-08T21:13:31;97868.22;;;15.47;100.00
13594;BME280;6449;47.666;9.160;2023-10-08T21:18:26;97860.28;;;15.47;100.00
13594;BME280;6449;47.666;9.160;2023-10-08T21:23:20;97869.19;;;15.46;100.00
13594;BME280;6449;47.666;9.160;2023-10-08T21:28:17;97858.59;;;15.46;100.00
13594;BME280;6449;47.666;9.160;2023-10-08T21:33:10;97862.22;;;15.45;100.00
13594;BME280;6449;47.666;9.160;2023-10-08T21:38:05;97852.84;;;15.41;100.00
13594;BME280;6449;47.666;9.160;2023-10-08T21:43:00;97849.59;;;15.37;100.00
13594;BME280;6449;47.666;9.160;2023-10-08T21:47:56;97852.03;;;15.29;100.00
13594;BME280;6449;47.666;9.160;2023-10-08T21:52:52;97848.31;;;15.09;100.00
13594;BME280;6449;47.666;9.160;2023-10-08T21:57:48;97840.13;;;15.12;100.00
13594;BME280;6449;47.666;9.160;2023-10-08T22:02:46;97840.50;;;15.19;100.00
13594;BME280;6449;47.666;9.160;2023-10-08T22:07:44;97838.84;;;15.18;100.00
13594;BME280;6449;47.666;9.160;2023-10-08T22:12:38;97839.53;;;15.20;100.00
13594;BME280;6449;47.666;9.160;2023-10-08T22:17:33;97831.28;;;15.13;100.00
13594;BME280;6449;47.666;9.160;2023-10-08T22:22:35;97831.50;;;15.10;100.00
13594;BME280;6449;47.666;9.160;2023-10-08T22:27:30;97833.66;;;15.05;100.00
13594;BME280;6449;47.666;9.160;2023-10-08T22:32:25;97823.81;;;15.07;100.00
13594;BME280;6449;47.666;9.160;2023-10-08T22:37:21;97818.53;;;14.96;100.00
13594;BME280;6449;47.666;9.160;2023-10-08T22:42:24;97825.53;;;14.97;100.00
13594;BME280;6449;47.666;9.160;2023-10-08T22:47:19;97824.09;;;14.93;100.00
13594;BME280;6449;47.666;9.160;2023-10-08T22:52:14;97813.38;;;14.94;100.00
13594;BME280;6449;47.666;9.160;2023-10-08T22:57:07;97823.25;;;14.92;100.00
13594;BME280;6449;47.666;9.160;2023-10-08T23:02:02;97820.97;;;14.88;100.00
13594;BME280;6449;47.666;9.160;2023-10-08T23:06:58;97817.00;;;14.82;100.00
13594;BME280;6449;47.666;9.160;2023-10-08T23:11:53;97816.53;;;14.66;100.00
13594;BME280;6449;47.666;9.160;2023-10-08T23:16:47;97810.28;;;14.67;100.00
13594;BME280;6449;47.666;9.160;2023-10-08T23:21:42;97808.34;;;14.58;100.00
13594;BME280;6449;47.666;9.160;2023-10-08T23:26:38;97794.66;;;14.53;100.00
13594;BME280;6449;47.666;9.160;2023-10-08T23:31:32;97791.94;;;14.54;100.00
13594;BME280;6449;47.666;9.160;2023-10-08T23:36:26;97796.47;;;14.52;100.00
13594;BME280;6449;47.666;9.160;2023-10-08T23:41:25;97793.13;;;14.50;100.00
13594;BME280;6449;47.666;9.160;2023-10-08T23:46:28;97793.94;;;14.51;100.00
13594;BME280;6449;47.666;9.160;2023-10-08T23:51:24;97788.53;;;14.52;100.00
13594;BME280;6449;47.666;9.160;2023-10-08T23:56:24;97785.78;;;14.54;100.00
